sensor_id;sensor_type;location;lat;lon;timestamp;P1;durP1;ratioP1;P2;durP2;ratioP2
7933;SDS011;4012;48.896;9.192;2023-08-01T00:00:56;4.53;;;3.07;;
7933;SDS011;4012;48.896;9.192;2023-08-01T00:03:21;5.70;;;3.83;;
7933;SDS011;4012;48.896;9.192;2023-08-01T00:05:47;7.93;;;2.87;;
7933;SDS011;4012;48.896;9.192;2023-08-01T00:08:13;5.07;;;3.33;;
7933;SDS011;4012;48.896;9.192;2023-08-01T00:10:39;4.60;;;3.00;;
7933;SDS011;4012;48.896;9.192;2023-08-01T00:13:06;4.70;;;3.10;;
7933;SDS011;4012;48.896;9.192;2023-08-01T00:15:32;7.93;;;3.10;;
7933;SDS011;4012;48.896;9.192;2023-08-01T00:17:58;4.47;;;3.10;;
7933;SDS011;4012;48.896;9.192;2023-08-01T00:20:23;5.50;;;3.40;;
7933;SDS011;4012;48.896;9.192;2023-08-01T00:22:49;8.73;;;3.53;;
7933;SDS011;4012;48.896;9.192;2023-08-01T00:25:14;6.43;;;3.43;;
7933;SDS011;4012;48.896;9.192;2023-08-01T00:27:40;5.40;;;2.80;;
7933;SDS011;4012;48.896;9.192;2023-08-01T00:30:06;4.60;;;3.17;;
7933;SDS011;4012;48.896;9.192;2023-08-01T00:32:32;6.83;;;3.17;;
7933;SDS011;4012;48.896;9.192;2023-08-01T00:34:58;4.13;;;2.90;;
7933;SDS011;4012;48.896;9.192;2023-08-01T00:37:24;5.37;;;3.53;;
7933;SDS011;4012;48.896;9.192;2023-08-01T00:39:49;5.90;;;3.43;;
7933;SDS011;4012;48.896;9.192;2023-08-01T00:42:15;4.23;;;3.13;;
7933;SDS011;4012;48.896;9.192;2023-08-01T00:44:41;4.27;;;3.13;;
7933;SDS011;4012;48.896;9.192;2023-08-01T00:47:07;8.20;;;3.63;;
7933;SDS011;4012;48.896;9.192;2023-08-01T00:49:34;5.57;;;3.23;;
7933;SDS011;4012;48.896;9.192;2023-08-01T00:52:00;4.73;;;3.50;;
7933;SDS011;4012;48.896;9.192;2023-08-01T00:54:25;4.93;;;3.33;;
7933;SDS011;4012;48.896;9.192;2023-08-01T00:56:51;4.37;;;3.50;;
7933;SDS011;4012;48.896;9.192;2023-08-01T00:59:17;9.53;;;2.97;;
7933;SDS011;4012;48.896;9.192;2023-08-01T01:01:43;5.50;;;3.43;;
7933;SDS011;4012;48.896;9.192;2023-08-01T01:04:08;5.97;;;3.07;;
7933;SDS011;4012;48.896;9.192;2023-08-01T01:06:34;4.00;;;3.50;;
7933;SDS011;4012;48.896;9.192;2023-08-01T01:09:18;4.97;;;3.40;;
7933;SDS011;4012;48.896;9.192;2023-08-01T01:11:45;6.00;;;3.70;;
7933;SDS011;4012;48.896;9.192;2023-08-01T01:14:11;4.37;;;3.33;;
7933;SDS011;4012;48.896;9.192;2023-08-01T01:16:37;5.77;;;3.40;;
7933;SDS011;4012;48.896;9.192;2023-08-01T01:19:06;7.33;;;3.30;;
7933;SDS011;4012;48.896;9.192;2023-08-01T01:21:33;5.27;;;3.23;;
7933;SDS011;4012;48.896;9.192;2023-08-01T01:24:00;4.33;;;3.00;;
7933;SDS011;4012;48.896;9.192;2023-08-01T01:26:28;4.57;;;3.30;;
7933;SDS011;4012;48.896;9.192;2023-08-01T01:28:54;5.43;;;3.37;;
7933;SDS011;4012;48.896;9.192;2023-08-01T01:31:20;6.37;;;3.30;;
7933;SDS011;4012;48.896;9.192;2023-08-01T01:33:46;4.90;;;3.60;;
7933;SDS011;4012;48.896;9.192;2023-08-01T01:36:11;7.97;;;3.87;;
7933;SDS011;4012;48.896;9.192;2023-08-01T01:38:37;6.57;;;3.10;;
7933;SDS011;4012;48.896;9.192;2023-08-01T01:41:02;4.77;;;3.50;;
7933;SDS011;4012;48.896;9.192;2023-08-01T01:43:28;4.83;;;3.37;;
7933;SDS011;4012;48.896;9.192;2023-08-01T01:45:54;7.90;;;3.60;;
7933;SDS011;4012;48.896;9.192;2023-08-01T01:48:19;5.40;;;3.77;;
7933;SDS011;4012;48.896;9.192;2023-08-01T01:50:45;5.80;;;3.60;;
7933;SDS011;4012;48.896;9.192;2023-08-01T01:53:10;6.10;;;3.93;;
7933;SDS011;4012;48.896;9.192;2023-08-01T01:55:36;4.77;;;3.43;;
7933;SDS011;4012;48.896;9.192;2023-08-01T01:58:02;3.87;;;3.43;;
7933;SDS011;4012;48.896;9.192;2023-08-01T02:00:27;6.20;;;3.47;;
7933;SDS011;4012;48.896;9.192;2023-08-01T02:02:53;4.47;;;3.00;;
7933;SDS011;4012;48.896;9.192;2023-08-01T02:05:19;5.23;;;3.30;;
7933;SDS011;4012;48.896;9.192;2023-08-01T02:07:44;8.73;;;3.60;;
7933;SDS011;4012;48.896;9.192;2023-08-01T02:10:10;4.60;;;3.07;;
7933;SDS011;4012;48.896;9.192;2023-08-01T02:12:35;4.50;;;3.73;;
7933;SDS011;4012;48.896;9.192;2023-08-01T02:15:01;7.53;;;3.97;;
7933;SDS011;4012;48.896;9.192;2023-08-01T02:17:27;5.07;;;3.60;;
7933;SDS011;4012;48.896;9.192;2023-08-01T02:19:53;5.60;;;3.67;;
7933;SDS011;4012;48.896;9.192;2023-08-01T02:22:18;4.93;;;3.90;;
7933;SDS011;4012;48.896;9.192;2023-08-01T02:24:44;4.50;;;2.87;;
7933;SDS011;4012;48.896;9.192;2023-08-01T02:27:10;5.30;;;2.90;;
7933;SDS011;4012;48.896;9.192;2023-08-01T02:29:35;6.20;;;3.93;;
7933;SDS011;4012;48.896;9.192;2023-08-01T02:32:01;5.67;;;2.90;;
7933;SDS011;4012;48.896;9.192;2023-08-01T02:34:26;6.93;;;3.83;;
7933;SDS011;4012;48.896;9.192;2023-08-01T02:36:52;8.63;;;3.77;;
7933;SDS011;4012;48.896;9.192;2023-08-01T02:39:18;7.87;;;4.07;;
7933;SDS011;4012;48.896;9.192;2023-08-01T02:41:43;6.03;;;3.60;;
7933;SDS011;4012;48.896;9.192;2023-08-01T02:44:09;7.50;;;3.80;;
7933;SDS011;4012;48.896;9.192;2023-08-01T02:46:34;3.83;;;3.13;;
7933;SDS011;4012;48.896;9.192;2023-08-01T02:49:00;6.20;;;3.83;;
7933;SDS011;4012;48.896;9.192;2023-08-01T02:51:26;4.70;;;3.80;;
7933;SDS011;4012;48.896;9.192;2023-08-01T02:53:52;6.20;;;4.30;;
7933;SDS011;4012;48.896;9.192;2023-08-01T02:56:17;6.37;;;3.93;;
7933;SDS011;4012;48.896;9.192;2023-08-01T02:58:45;7.57;;;4.27;;
7933;SDS011;4012;48.896;9.192;2023-08-01T03:01:16;5.70;;;3.80;;
7933;SDS011;4012;48.896;9.192;2023-08-01T03:03:45;6.20;;;3.53;;
7933;SDS011;4012;48.896;9.192;2023-08-01T03:06:10;4.50;;;4.10;;
7933;SDS011;4012;48.896;9.192;2023-08-01T03:08:37;6.40;;;4.00;;
7933;SDS011;4012;48.896;9.192;2023-08-01T03:11:03;5.90;;;3.87;;
7933;SDS011;4012;48.896;9.192;2023-08-01T03:13:31;5.67;;;3.73;;
7933;SDS011;4012;48.896;9.192;2023-08-01T03:15:57;5.17;;;3.73;;
7933;SDS011;4012;48.896;9.192;2023-08-01T03:18:22;4.87;;;3.17;;
7933;SDS011;4012;48.896;9.192;2023-08-01T03:20:48;6.60;;;4.27;;
7933;SDS011;4012;48.896;9.192;2023-08-01T03:23:14;5.90;;;3.93;;
7933;SDS011;4012;48.896;9.192;2023-08-01T03:25:40;4.70;;;3.30;;
7933;SDS011;4012;48.896;9.192;2023-08-01T03:28:05;4.47;;;3.73;;
7933;SDS011;4012;48.896;9.192;2023-08-01T03:30:32;4.50;;;3.40;;
7933;SDS011;4012;48.896;9.192;2023-08-01T03:32:59;4.83;;;3.43;;
7933;SDS011;4012;48.896;9.192;2023-08-01T03:35:26;5.47;;;4.03;;
7933;SDS011;4012;48.896;9.192;2023-08-01T03:37:51;5.50;;;3.57;;
7933;SDS011;4012;48.896;9.192;2023-08-01T03:40:17;3.90;;;3.40;;
7933;SDS011;4012;48.896;9.192;2023-08-01T03:42:44;4.77;;;3.47;;
7933;SDS011;4012;48.896;9.192;2023-08-01T03:45:10;8.23;;;3.83;;
7933;SDS011;4012;48.896;9.192;2023-08-01T03:47:35;4.60;;;3.50;;
7933;SDS011;4012;48.896;9.192;2023-08-01T03:50:01;6.20;;;3.70;;
7933;SDS011;4012;48.896;9.192;2023-08-01T03:52:28;4.33;;;3.23;;
7933;SDS011;4012;48.896;9.192;2023-08-01T03:54:54;4.67;;;3.27;;
7933;SDS011;4012;48.896;9.192;2023-08-01T03:57:20;6.57;;;4.33;;
7933;SDS011;4012;48.896;9.192;2023-08-01T03:59:46;6.23;;;4.07;;
7933;SDS011;4012;48.896;9.192;2023-08-01T04:02:11;5.67;;;3.60;;
7933;SDS011;4012;48.896;9.192;2023-08-01T04:04:37;5.10;;;3.10;;
7933;SDS011;4012;48.896;9.192;2023-08-01T04:07:03;6.43;;;3.53;;
7933;SDS011;4012;48.896;9.192;2023-08-01T04:09:29;7.40;;;3.67;;
7933;SDS011;4012;48.896;9.192;2023-08-01T04:11:55;5.40;;;3.57;;
7933;SDS011;4012;48.896;9.192;2023-08-01T04:14:20;5.57;;;3.40;;
7933;SDS011;4012;48.896;9.192;2023-08-01T04:16:46;3.67;;;2.77;;
7933;SDS011;4012;48.896;9.192;2023-08-01T04:19:12;4.83;;;3.13;;
7933;SDS011;4012;48.896;9.192;2023-08-01T04:21:38;6.03;;;3.80;;
7933;SDS011;4012;48.896;9.192;2023-08-01T04:24:03;4.53;;;2.97;;
7933;SDS011;4012;48.896;9.192;2023-08-01T04:26:29;6.47;;;3.00;;
7933;SDS011;4012;48.896;9.192;2023-08-01T04:28:55;3.93;;;2.70;;
7933;SDS011;4012;48.896;9.192;2023-08-01T04:31:20;4.33;;;2.63;;
7933;SDS011;4012;48.896;9.192;2023-08-01T04:33:46;5.33;;;2.50;;
7933;SDS011;4012;48.896;9.192;2023-08-01T04:36:11;4.50;;;3.10;;
7933;SDS011;4012;48.896;9.192;2023-08-01T04:38:37;4.13;;;3.00;;
7933;SDS011;4012;48.896;9.192;2023-08-01T04:41:03;3.00;;;2.67;;
7933;SDS011;4012;48.896;9.192;2023-08-01T04:43:28;3.17;;;2.70;;
7933;SDS011;4012;48.896;9.192;2023-08-01T04:45:54;4.53;;;2.93;;
7933;SDS011;4012;48.896;9.192;2023-08-01T04:48:19;3.67;;;2.80;;
7933;SDS011;4012;48.896;9.192;2023-08-01T04:50:45;3.90;;;2.87;;
7933;SDS011;4012;48.896;9.192;2023-08-01T04:53:11;5.70;;;2.90;;
7933;SDS011;4012;48.896;9.192;2023-08-01T04:55:37;6.33;;;2.83;;
7933;SDS011;4012;48.896;9.192;2023-08-01T04:58:03;7.20;;;3.10;;
7933;SDS011;4012;48.896;9.192;2023-08-01T05:00:28;4.40;;;2.90;;
7933;SDS011;4012;48.896;9.192;2023-08-01T05:02:54;4.27;;;2.67;;
7933;SDS011;4012;48.896;9.192;2023-08-01T05:05:19;4.83;;;3.00;;
7933;SDS011;4012;48.896;9.192;2023-08-01T05:07:45;7.73;;;3.00;;
7933;SDS011;4012;48.896;9.192;2023-08-01T05:10:11;5.97;;;3.13;;
7933;SDS011;4012;48.896;9.192;2023-08-01T05:12:36;3.73;;;2.67;;
7933;SDS011;4012;48.896;9.192;2023-08-01T05:15:02;3.77;;;2.53;;
7933;SDS011;4012;48.896;9.192;2023-08-01T05:17:28;5.30;;;2.93;;
7933;SDS011;4012;48.896;9.192;2023-08-01T05:19:54;4.60;;;2.57;;
7933;SDS011;4012;48.896;9.192;2023-08-01T05:22:20;4.03;;;2.70;;
7933;SDS011;4012;48.896;9.192;2023-08-01T05:24:46;4.93;;;2.97;;
7933;SDS011;4012;48.896;9.192;2023-08-01T05:27:11;4.60;;;2.90;;
7933;SDS011;4012;48.896;9.192;2023-08-01T05:29:37;3.37;;;2.63;;
7933;SDS011;4012;48.896;9.192;2023-08-01T05:32:03;3.97;;;2.63;;
7933;SDS011;4012;48.896;9.192;2023-08-01T05:34:28;5.30;;;4.67;;
7933;SDS011;4012;48.896;9.192;2023-08-01T05:36:54;6.87;;;2.83;;
7933;SDS011;4012;48.896;9.192;2023-08-01T05:39:20;6.23;;;2.70;;
7933;SDS011;4012;48.896;9.192;2023-08-01T05:41:45;4.20;;;3.13;;
7933;SDS011;4012;48.896;9.192;2023-08-01T05:44:11;3.63;;;2.30;;
7933;SDS011;4012;48.896;9.192;2023-08-01T05:46:36;5.20;;;3.70;;
7933;SDS011;4012;48.896;9.192;2023-08-01T05:49:02;3.63;;;2.80;;
7933;SDS011;4012;48.896;9.192;2023-08-01T05:51:27;7.30;;;4.67;;
7933;SDS011;4012;48.896;9.192;2023-08-01T05:53:53;3.70;;;2.70;;
7933;SDS011;4012;48.896;9.192;2023-08-01T05:56:18;4.77;;;2.50;;
7933;SDS011;4012;48.896;9.192;2023-08-01T05:58:44;3.13;;;2.63;;
7933;SDS011;4012;48.896;9.192;2023-08-01T06:01:10;3.33;;;2.57;;
7933;SDS011;4012;48.896;9.192;2023-08-01T06:03:36;4.50;;;2.87;;
7933;SDS011;4012;48.896;9.192;2023-08-01T06:06:02;6.53;;;4.47;;
7933;SDS011;4012;48.896;9.192;2023-08-01T06:08:28;4.53;;;2.67;;
7933;SDS011;4012;48.896;9.192;2023-08-01T06:10:54;4.43;;;3.00;;
7933;SDS011;4012;48.896;9.192;2023-08-01T06:13:19;7.13;;;3.23;;
7933;SDS011;4012;48.896;9.192;2023-08-01T06:15:45;5.17;;;2.97;;
7933;SDS011;4012;48.896;9.192;2023-08-01T06:18:10;3.60;;;2.83;;
7933;SDS011;4012;48.896;9.192;2023-08-01T06:20:36;4.03;;;3.23;;
7933;SDS011;4012;48.896;9.192;2023-08-01T06:23:02;6.70;;;2.57;;
7933;SDS011;4012;48.896;9.192;2023-08-01T06:25:28;4.07;;;2.97;;
7933;SDS011;4012;48.896;9.192;2023-08-01T06:27:53;4.30;;;3.13;;
7933;SDS011;4012;48.896;9.192;2023-08-01T06:30:19;8.00;;;3.60;;
7933;SDS011;4012;48.896;9.192;2023-08-01T06:32:44;5.47;;;3.30;;
7933;SDS011;4012;48.896;9.192;2023-08-01T06:35:10;7.30;;;3.60;;
7933;SDS011;4012;48.896;9.192;2023-08-01T06:37:35;6.07;;;3.77;;
7933;SDS011;4012;48.896;9.192;2023-08-01T06:40:01;5.30;;;3.40;;
7933;SDS011;4012;48.896;9.192;2023-08-01T06:42:28;9.60;;;4.07;;
7933;SDS011;4012;48.896;9.192;2023-08-01T06:44:53;7.13;;;4.40;;
7933;SDS011;4012;48.896;9.192;2023-08-01T06:47:19;4.60;;;4.10;;
7933;SDS011;4012;48.896;9.192;2023-08-01T06:49:44;4.80;;;3.80;;
7933;SDS011;4012;48.896;9.192;2023-08-01T06:52:10;4.83;;;4.20;;
7933;SDS011;4012;48.896;9.192;2023-08-01T06:54:35;8.27;;;4.47;;
7933;SDS011;4012;48.896;9.192;2023-08-01T06:57:01;6.00;;;4.17;;
7933;SDS011;4012;48.896;9.192;2023-08-01T06:59:27;6.87;;;4.20;;
7933;SDS011;4012;48.896;9.192;2023-08-01T07:01:53;7.23;;;4.60;;
7933;SDS011;4012;48.896;9.192;2023-08-01T07:04:19;5.43;;;4.30;;
7933;SDS011;4012;48.896;9.192;2023-08-01T07:06:44;5.80;;;4.60;;
7933;SDS011;4012;48.896;9.192;2023-08-01T07:09:10;5.70;;;4.70;;
7933;SDS011;4012;48.896;9.192;2023-08-01T07:11:35;6.00;;;4.37;;
7933;SDS011;4012;48.896;9.192;2023-08-01T07:14:01;5.40;;;4.57;;
7933;SDS011;4012;48.896;9.192;2023-08-01T07:16:27;6.77;;;4.80;;
7933;SDS011;4012;48.896;9.192;2023-08-01T07:18:52;7.67;;;4.83;;
7933;SDS011;4012;48.896;9.192;2023-08-01T07:21:18;7.10;;;5.50;;
7933;SDS011;4012;48.896;9.192;2023-08-01T07:23:43;7.63;;;5.40;;
7933;SDS011;4012;48.896;9.192;2023-08-01T07:26:09;8.43;;;4.83;;
7933;SDS011;4012;48.896;9.192;2023-08-01T07:28:35;8.27;;;4.70;;
7933;SDS011;4012;48.896;9.192;2023-08-01T07:31:01;6.17;;;4.57;;
7933;SDS011;4012;48.896;9.192;2023-08-01T07:33:29;7.10;;;5.17;;
7933;SDS011;4012;48.896;9.192;2023-08-01T07:35:55;7.50;;;5.10;;
7933;SDS011;4012;48.896;9.192;2023-08-01T07:38:20;7.50;;;4.70;;
7933;SDS011;4012;48.896;9.192;2023-08-01T07:40:46;8.03;;;6.70;;
7933;SDS011;4012;48.896;9.192;2023-08-01T07:43:12;6.83;;;4.27;;
7933;SDS011;4012;48.896;9.192;2023-08-01T07:45:40;7.27;;;4.70;;
7933;SDS011;4012;48.896;9.192;2023-08-01T07:48:06;6.47;;;4.77;;
7933;SDS011;4012;48.896;9.192;2023-08-01T07:50:31;10.20;;;4.27;;
7933;SDS011;4012;48.896;9.192;2023-08-01T07:52:57;6.03;;;4.90;;
7933;SDS011;4012;48.896;9.192;2023-08-01T07:55:23;9.77;;;4.67;;
7933;SDS011;4012;48.896;9.192;2023-08-01T07:57:48;5.37;;;4.17;;
7933;SDS011;4012;48.896;9.192;2023-08-01T08:00:14;6.03;;;4.50;;
7933;SDS011;4012;48.896;9.192;2023-08-01T08:02:44;4.90;;;3.90;;
7933;SDS011;4012;48.896;9.192;2023-08-01T08:05:11;4.20;;;3.23;;
7933;SDS011;4012;48.896;9.192;2023-08-01T08:07:37;7.43;;;5.70;;
7933;SDS011;4012;48.896;9.192;2023-08-01T08:10:06;5.00;;;3.67;;
7933;SDS011;4012;48.896;9.192;2023-08-01T08:12:32;3.27;;;2.97;;
7933;SDS011;4012;48.896;9.192;2023-08-01T08:14:57;5.30;;;3.00;;
7933;SDS011;4012;48.896;9.192;2023-08-01T08:17:23;4.33;;;3.10;;
7933;SDS011;4012;48.896;9.192;2023-08-01T08:19:49;3.93;;;2.83;;
7933;SDS011;4012;48.896;9.192;2023-08-01T08:22:14;4.83;;;2.80;;
7933;SDS011;4012;48.896;9.192;2023-08-01T08:24:40;3.17;;;2.63;;
7933;SDS011;4012;48.896;9.192;2023-08-01T08:27:05;4.07;;;2.40;;
7933;SDS011;4012;48.896;9.192;2023-08-01T08:29:31;3.27;;;2.40;;
7933;SDS011;4012;48.896;9.192;2023-08-01T08:31:58;3.83;;;3.07;;
7933;SDS011;4012;48.896;9.192;2023-08-01T08:34:23;4.30;;;3.57;;
7933;SDS011;4012;48.896;9.192;2023-08-01T08:36:49;3.00;;;2.53;;
7933;SDS011;4012;48.896;9.192;2023-08-01T08:39:16;4.90;;;3.60;;
7933;SDS011;4012;48.896;9.192;2023-08-01T08:41:45;2.90;;;2.60;;
7933;SDS011;4012;48.896;9.192;2023-08-01T08:44:13;2.97;;;2.10;;
7933;SDS011;4012;48.896;9.192;2023-08-01T08:46:43;5.43;;;2.20;;
7933;SDS011;4012;48.896;9.192;2023-08-01T08:49:09;2.40;;;2.20;;
7933;SDS011;4012;48.896;9.192;2023-08-01T08:51:36;3.43;;;2.47;;
7933;SDS011;4012;48.896;9.192;2023-08-01T08:54:03;2.50;;;2.17;;
7933;SDS011;4012;48.896;9.192;2023-08-01T08:56:31;4.00;;;2.30;;
7933;SDS011;4012;48.896;9.192;2023-08-01T08:58:58;3.57;;;2.40;;
7933;SDS011;4012;48.896;9.192;2023-08-01T09:01:27;3.50;;;2.33;;
7933;SDS011;4012;48.896;9.192;2023-08-01T09:03:53;2.57;;;2.17;;
7933;SDS011;4012;48.896;9.192;2023-08-01T09:06:21;1.93;;;1.77;;
7933;SDS011;4012;48.896;9.192;2023-08-01T09:08:50;2.33;;;2.10;;
7933;SDS011;4012;48.896;9.192;2023-08-01T09:11:20;2.67;;;1.80;;
7933;SDS011;4012;48.896;9.192;2023-08-01T09:13:47;2.53;;;2.20;;
7933;SDS011;4012;48.896;9.192;2023-08-01T09:16:14;4.50;;;2.90;;
7933;SDS011;4012;48.896;9.192;2023-08-01T09:18:47;3.93;;;2.03;;
7933;SDS011;4012;48.896;9.192;2023-08-01T09:21:22;3.60;;;2.30;;
7933;SDS011;4012;48.896;9.192;2023-08-01T09:23:48;4.60;;;2.10;;
7933;SDS011;4012;48.896;9.192;2023-08-01T09:26:18;2.87;;;2.00;;
7933;SDS011;4012;48.896;9.192;2023-08-01T09:28:54;3.80;;;1.57;;
7933;SDS011;4012;48.896;9.192;2023-08-01T09:31:34;3.47;;;2.00;;
7933;SDS011;4012;48.896;9.192;2023-08-01T09:34:02;3.63;;;2.70;;
7933;SDS011;4012;48.896;9.192;2023-08-01T09:36:34;2.20;;;2.00;;
7933;SDS011;4012;48.896;9.192;2023-08-01T09:39:01;4.43;;;3.47;;
7933;SDS011;4012;48.896;9.192;2023-08-01T09:41:31;3.07;;;1.73;;
7933;SDS011;4012;48.896;9.192;2023-08-01T09:43:56;2.43;;;1.50;;
7933;SDS011;4012;48.896;9.192;2023-08-01T09:46:23;3.50;;;1.40;;
7933;SDS011;4012;48.896;9.192;2023-08-01T09:48:49;1.60;;;1.33;;
7933;SDS011;4012;48.896;9.192;2023-08-01T09:51:15;2.67;;;1.90;;
7933;SDS011;4012;48.896;9.192;2023-08-01T09:53:49;2.73;;;1.47;;
7933;SDS011;4012;48.896;9.192;2023-08-01T09:56:19;1.47;;;1.37;;
7933;SDS011;4012;48.896;9.192;2023-08-01T09:58:49;1.43;;;1.33;;
7933;SDS011;4012;48.896;9.192;2023-08-01T10:01:17;1.80;;;1.20;;
7933;SDS011;4012;48.896;9.192;2023-08-01T10:03:46;1.70;;;1.60;;
7933;SDS011;4012;48.896;9.192;2023-08-01T10:06:19;2.20;;;1.40;;
7933;SDS011;4012;48.896;9.192;2023-08-01T10:08:49;2.53;;;1.77;;
7933;SDS011;4012;48.896;9.192;2023-08-01T10:11:38;2.17;;;1.40;;
7933;SDS011;4012;48.896;9.192;2023-08-01T10:14:06;2.70;;;1.50;;
7933;SDS011;4012;48.896;9.192;2023-08-01T10:16:31;2.30;;;1.27;;
7933;SDS011;4012;48.896;9.192;2023-08-01T10:18:58;2.30;;;1.30;;
7933;SDS011;4012;48.896;9.192;2023-08-01T10:21:24;3.63;;;2.73;;
7933;SDS011;4012;48.896;9.192;2023-08-01T10:23:52;2.43;;;1.47;;
7933;SDS011;4012;48.896;9.192;2023-08-01T10:26:20;2.00;;;1.00;;
7933;SDS011;4012;48.896;9.192;2023-08-01T10:28:50;1.10;;;1.00;;
7933;SDS011;4012;48.896;9.192;2023-08-01T10:31:17;1.77;;;0.90;;
7933;SDS011;4012;48.896;9.192;2023-08-01T10:33:44;0.73;;;0.73;;
7933;SDS011;4012;48.896;9.192;2023-08-01T10:36:12;0.90;;;0.90;;
7933;SDS011;4012;48.896;9.192;2023-08-01T10:38:48;0.97;;;0.97;;
7933;SDS011;4012;48.896;9.192;2023-08-01T10:41:19;1.67;;;1.03;;
7933;SDS011;4012;48.896;9.192;2023-08-01T10:44:04;0.87;;;0.73;;
7933;SDS011;4012;48.896;9.192;2023-08-01T10:46:32;1.43;;;0.90;;
7933;SDS011;4012;48.896;9.192;2023-08-01T10:49:33;0.93;;;0.90;;
7933;SDS011;4012;48.896;9.192;2023-08-01T10:52:01;0.67;;;0.67;;
7933;SDS011;4012;48.896;9.192;2023-08-01T10:54:27;0.87;;;0.83;;
7933;SDS011;4012;48.896;9.192;2023-08-01T10:56:53;1.30;;;1.20;;
7933;SDS011;4012;48.896;9.192;2023-08-01T10:59:21;3.07;;;2.20;;
7933;SDS011;4012;48.896;9.192;2023-08-01T11:01:48;1.63;;;1.30;;
7933;SDS011;4012;48.896;9.192;2023-08-01T11:04:15;1.10;;;1.00;;
7933;SDS011;4012;48.896;9.192;2023-08-01T11:06:49;2.00;;;1.70;;
7933;SDS011;4012;48.896;9.192;2023-08-01T11:09:22;2.83;;;2.30;;
7933;SDS011;4012;48.896;9.192;2023-08-01T11:12:00;4.03;;;2.10;;
7933;SDS011;4012;48.896;9.192;2023-08-01T11:14:26;1.60;;;1.40;;
7933;SDS011;4012;48.896;9.192;2023-08-01T11:16:54;1.20;;;1.10;;
7933;SDS011;4012;48.896;9.192;2023-08-01T11:19:24;1.37;;;1.20;;
7933;SDS011;4012;48.896;9.192;2023-08-01T11:21:52;1.50;;;1.10;;
7933;SDS011;4012;48.896;9.192;2023-08-01T11:24:18;1.50;;;1.13;;
7933;SDS011;4012;48.896;9.192;2023-08-01T11:26:45;2.07;;;1.17;;
7933;SDS011;4012;48.896;9.192;2023-08-01T11:29:13;1.73;;;1.40;;
7933;SDS011;4012;48.896;9.192;2023-08-01T11:31:40;4.70;;;2.10;;
7933;SDS011;4012;48.896;9.192;2023-08-01T11:34:08;1.97;;;1.77;;
7933;SDS011;4012;48.896;9.192;2023-08-01T11:36:35;2.07;;;1.80;;
7933;SDS011;4012;48.896;9.192;2023-08-01T11:39:04;1.70;;;1.57;;
7933;SDS011;4012;48.896;9.192;2023-08-01T11:41:29;2.23;;;1.60;;
7933;SDS011;4012;48.896;9.192;2023-08-01T11:44:00;1.40;;;1.20;;
7933;SDS011;4012;48.896;9.192;2023-08-01T11:46:34;2.57;;;1.83;;
7933;SDS011;4012;48.896;9.192;2023-08-01T11:49:03;2.77;;;1.67;;
7933;SDS011;4012;48.896;9.192;2023-08-01T11:51:37;1.97;;;1.50;;
7933;SDS011;4012;48.896;9.192;2023-08-01T11:54:04;1.90;;;1.50;;
7933;SDS011;4012;48.896;9.192;2023-08-01T11:56:30;1.30;;;1.20;;
7933;SDS011;4012;48.896;9.192;2023-08-01T11:58:56;2.53;;;1.40;;
7933;SDS011;4012;48.896;9.192;2023-08-01T12:01:23;1.30;;;1.20;;
7933;SDS011;4012;48.896;9.192;2023-08-01T12:03:50;5.03;;;2.10;;
7933;SDS011;4012;48.896;9.192;2023-08-01T12:06:18;2.30;;;1.80;;
7933;SDS011;4012;48.896;9.192;2023-08-01T12:08:46;1.70;;;1.43;;
7933;SDS011;4012;48.896;9.192;2023-08-01T12:13:45;1.60;;;1.50;;
7933;SDS011;4012;48.896;9.192;2023-08-01T12:16:11;2.23;;;1.30;;
7933;SDS011;4012;48.896;9.192;2023-08-01T12:18:40;1.53;;;1.40;;
7933;SDS011;4012;48.896;9.192;2023-08-01T12:21:07;2.23;;;1.50;;
7933;SDS011;4012;48.896;9.192;2023-08-01T12:23:33;1.57;;;1.23;;
7933;SDS011;4012;48.896;9.192;2023-08-01T12:26:00;6.07;;;1.27;;
7933;SDS011;4012;48.896;9.192;2023-08-01T12:28:26;2.60;;;1.30;;
7933;SDS011;4012;48.896;9.192;2023-08-01T12:30:51;1.90;;;1.20;;
7933;SDS011;4012;48.896;9.192;2023-08-01T12:33:17;1.90;;;1.40;;
7933;SDS011;4012;48.896;9.192;2023-08-01T12:35:42;1.83;;;1.63;;
7933;SDS011;4012;48.896;9.192;2023-08-01T12:38:08;1.40;;;1.30;;
7933;SDS011;4012;48.896;9.192;2023-08-01T12:40:34;3.60;;;1.63;;
7933;SDS011;4012;48.896;9.192;2023-08-01T12:43:00;1.70;;;1.30;;
7933;SDS011;4012;48.896;9.192;2023-08-01T12:45:26;1.50;;;1.20;;
7933;SDS011;4012;48.896;9.192;2023-08-01T12:47:51;2.43;;;1.30;;
7933;SDS011;4012;48.896;9.192;2023-08-01T12:50:17;1.70;;;1.53;;
7933;SDS011;4012;48.896;9.192;2023-08-01T12:52:43;1.60;;;1.47;;
7933;SDS011;4012;48.896;9.192;2023-08-01T12:55:08;2.40;;;1.73;;
7933;SDS011;4012;48.896;9.192;2023-08-01T12:57:34;2.37;;;1.23;;
7933;SDS011;4012;48.896;9.192;2023-08-01T12:59:59;1.03;;;0.97;;
7933;SDS011;4012;48.896;9.192;2023-08-01T13:02:26;3.53;;;1.30;;
7933;SDS011;4012;48.896;9.192;2023-08-01T13:04:52;1.30;;;1.13;;
7933;SDS011;4012;48.896;9.192;2023-08-01T13:07:18;3.33;;;1.57;;
7933;SDS011;4012;48.896;9.192;2023-08-01T13:09:43;2.10;;;1.70;;
7933;SDS011;4012;48.896;9.192;2023-08-01T13:12:10;2.27;;;1.73;;
7933;SDS011;4012;48.896;9.192;2023-08-01T13:14:36;3.33;;;1.40;;
7933;SDS011;4012;48.896;9.192;2023-08-01T13:17:01;2.43;;;1.23;;
7933;SDS011;4012;48.896;9.192;2023-08-01T13:19:27;1.30;;;1.17;;
7933;SDS011;4012;48.896;9.192;2023-08-01T13:21:53;2.97;;;1.43;;
7933;SDS011;4012;48.896;9.192;2023-08-01T13:24:19;2.03;;;1.60;;
7933;SDS011;4012;48.896;9.192;2023-08-01T13:26:44;1.87;;;1.47;;
7933;SDS011;4012;48.896;9.192;2023-08-01T13:29:10;1.70;;;1.43;;
7933;SDS011;4012;48.896;9.192;2023-08-01T13:31:36;2.50;;;1.40;;
7933;SDS011;4012;48.896;9.192;2023-08-01T13:34:02;2.33;;;1.67;;
7933;SDS011;4012;48.896;9.192;2023-08-01T13:36:27;5.17;;;1.50;;
7933;SDS011;4012;48.896;9.192;2023-08-01T13:39:01;2.13;;;1.40;;
7933;SDS011;4012;48.896;9.192;2023-08-01T13:41:32;3.73;;;1.20;;
7933;SDS011;4012;48.896;9.192;2023-08-01T13:44:01;2.27;;;1.20;;
7933;SDS011;4012;48.896;9.192;2023-08-01T13:46:27;2.50;;;1.30;;
7933;SDS011;4012;48.896;9.192;2023-08-01T13:48:53;1.87;;;1.50;;
7933;SDS011;4012;48.896;9.192;2023-08-01T13:51:18;2.43;;;1.53;;
7933;SDS011;4012;48.896;9.192;2023-08-01T13:53:45;2.10;;;1.70;;
7933;SDS011;4012;48.896;9.192;2023-08-01T13:56:10;2.73;;;1.60;;
7933;SDS011;4012;48.896;9.192;2023-08-01T13:58:37;2.30;;;1.70;;
7933;SDS011;4012;48.896;9.192;2023-08-01T14:01:06;2.23;;;1.37;;
7933;SDS011;4012;48.896;9.192;2023-08-01T14:03:39;1.90;;;1.70;;
7933;SDS011;4012;48.896;9.192;2023-08-01T14:08:30;3.20;;;1.40;;
7933;SDS011;4012;48.896;9.192;2023-08-01T14:10:56;2.33;;;1.33;;
7933;SDS011;4012;48.896;9.192;2023-08-01T14:13:22;5.00;;;1.90;;
7933;SDS011;4012;48.896;9.192;2023-08-01T14:15:47;2.17;;;1.70;;
7933;SDS011;4012;48.896;9.192;2023-08-01T14:18:13;2.17;;;1.30;;
7933;SDS011;4012;48.896;9.192;2023-08-01T14:20:38;2.10;;;1.83;;
7933;SDS011;4012;48.896;9.192;2023-08-01T14:23:04;1.97;;;1.73;;
7933;SDS011;4012;48.896;9.192;2023-08-01T14:25:30;2.17;;;1.60;;
7933;SDS011;4012;48.896;9.192;2023-08-01T14:27:55;2.73;;;1.73;;
7933;SDS011;4012;48.896;9.192;2023-08-01T14:30:21;2.50;;;1.73;;
7933;SDS011;4012;48.896;9.192;2023-08-01T14:32:47;1.73;;;1.40;;
7933;SDS011;4012;48.896;9.192;2023-08-01T14:35:12;2.30;;;1.70;;
7933;SDS011;4012;48.896;9.192;2023-08-01T14:37:38;3.80;;;1.63;;
7933;SDS011;4012;48.896;9.192;2023-08-01T14:40:04;3.23;;;1.47;;
7933;SDS011;4012;48.896;9.192;2023-08-01T14:42:30;2.50;;;1.60;;
7933;SDS011;4012;48.896;9.192;2023-08-01T14:44:55;3.00;;;1.60;;
7933;SDS011;4012;48.896;9.192;2023-08-01T14:47:22;1.60;;;1.50;;
7933;SDS011;4012;48.896;9.192;2023-08-01T14:49:48;1.97;;;1.43;;
7933;SDS011;4012;48.896;9.192;2023-08-01T14:52:14;1.90;;;1.50;;
7933;SDS011;4012;48.896;9.192;2023-08-01T14:54:40;2.70;;;1.60;;
7933;SDS011;4012;48.896;9.192;2023-08-01T14:57:05;2.00;;;1.60;;
7933;SDS011;4012;48.896;9.192;2023-08-01T14:59:40;1.70;;;1.40;;
7933;SDS011;4012;48.896;9.192;2023-08-01T15:02:08;2.00;;;1.60;;
7933;SDS011;4012;48.896;9.192;2023-08-01T15:04:37;4.40;;;1.90;;
7933;SDS011;4012;48.896;9.192;2023-08-01T15:07:02;3.37;;;1.90;;
7933;SDS011;4012;48.896;9.192;2023-08-01T15:09:36;3.17;;;2.10;;
7933;SDS011;4012;48.896;9.192;2023-08-01T15:12:02;2.73;;;1.70;;
7933;SDS011;4012;48.896;9.192;2023-08-01T15:14:28;3.30;;;2.10;;
7933;SDS011;4012;48.896;9.192;2023-08-01T15:16:53;1.80;;;1.27;;